Time;durP1;ratioP1;P1;durP2;ratioP2;P2;SDS_P1;SDS_P2;PMS_P1;PMS_P2;Temp;Humidity;BMP_temperature;BMP_pressure;BME280_temperature;BME280_humidity;BME280_pressure;Samples;Min_cycle;Max_cycle;Signal;HPM_P1;HPM_P2
2023/09/09 00:01:41;;;;;;;15.98;7.20;;;20.70;99.90;;;;;;5073097;28;20036;-83
2023/09/09 00:04:08;;;;;;;15.07;8.18;;;20.70;99.90;;;;;;5073420;28;20421;-83
2023/09/09 00:06:35;;;;;;;17.30;8.07;;;20.70;99.90;;;;;;5093853;28;20117;-84
2023/09/09 00:09:04;;;;;;;15.40;7.70;;;20.70;99.90;;;;;;5094163;28;20433;-82
2023/09/09 00:11:31;;;;;;;14.27;7.20;;;20.60;99.90;;;;;;5096189;28;20048;-81
2023/09/09 00:14:01;;;;;;;11.88;6.88;;;20.60;99.90;;;;;;5089292;28;20140;-83
2023/09/09 00:16:32;;;;;;;17.00;7.47;;;20.60;99.90;;;;;;5083098;28;20064;-82
2023/09/09 00:18:59;;;;;;;14.85;7.10;;;20.60;99.90;;;;;;5090516;28;20036;-81
2023/09/09 00:21:25;;;;;;;12.38;6.82;;;20.50;99.90;;;;;;5100311;28;20037;-80
2023/09/09 00:23:52;;;;;;;15.90;7.38;;;20.50;99.90;;;;;;5104583;28;20035;-81
2023/09/09 00:26:19;;;;;;;15.02;7.55;;;20.50;99.90;;;;;;5107841;28;20048;-80
2023/09/09 00:28:47;;;;;;;15.50;7.40;;;20.50;99.90;;;;;;5063127;28;20048;-82
2023/09/09 00:31:14;;;;;;;19.27;7.63;;;20.40;99.90;;;;;;5092699;28;20066;-81
2023/09/09 00:33:40;;;;;;;12.70;6.60;;;20.40;99.90;;;;;;5081747;28;20041;-83
2023/09/09 00:36:07;;;;;;;14.07;7.50;;;20.40;99.90;;;;;;5080829;28;20481;-83
2023/09/09 00:38:34;;;;;;;18.98;7.65;;;20.40;99.90;;;;;;5088087;28;20511;-82
2023/09/09 00:41:01;;;;;;;13.57;7.22;;;20.40;99.90;;;;;;5088316;28;20462;-81
2023/09/09 00:43:28;;;;;;;14.05;7.57;;;20.30;99.90;;;;;;5082509;28;20343;-81
2023/09/09 00:45:54;;;;;;;12.13;6.57;;;20.40;99.90;;;;;;5088077;28;20355;-83
2023/09/09 00:51:08;;;;;;;14.50;7.45;;;20.40;99.90;;;;;;5077262;28;20059;-82
2023/09/09 00:53:34;;;;;;;14.15;7.70;;;20.40;99.90;;;;;;5044454;28;20369;-82
2023/09/09 00:56:02;;;;;;;16.55;7.20;;;20.40;99.90;;;;;;5066132;28;20059;-83
2023/09/09 01:01:00;;;;;;;15.70;7.70;;;20.40;99.90;;;;;;5057797;28;20110;-83
2023/09/09 01:03:29;;;;;;;14.88;7.55;;;20.30;99.90;;;;;;5046739;28;20075;-83
2023/09/09 01:05:56;;;;;;;11.82;6.47;;;20.30;99.90;;;;;;5063199;28;20033;-83
2023/09/09 01:08:26;;;;;;;14.10;7.35;;;20.30;99.90;;;;;;5039889;28;20158;-82
2023/09/09 01:10:54;;;;;;;14.80;7.97;;;20.30;99.90;;;;;;5043011;28;20053;-81
2023/09/09 01:13:21;;;;;;;17.63;6.57;;;20.30;99.90;;;;;;5056290;28;20037;-83
2023/09/09 01:15:48;;;;;;;13.23;6.90;;;20.20;99.90;;;;;;5042826;28;20076;-82
2023/09/09 01:18:17;;;;;;;12.32;6.75;;;20.20;99.90;;;;;;5063528;28;20048;-82
2023/09/09 01:20:44;;;;;;;12.52;6.70;;;20.20;99.90;;;;;;5080111;28;20048;-81
2023/09/09 01:23:11;;;;;;;12.82;6.47;;;20.10;99.90;;;;;;5057468;28;20033;-81
2023/09/09 01:25:37;;;;;;;12.43;6.25;;;20.10;99.90;;;;;;5057683;28;20052;-83
2023/09/09 01:28:06;;;;;;;15.75;6.90;;;20.10;99.90;;;;;;5070574;28;20578;-82
2023/09/09 01:30:33;;;;;;;14.05;6.18;;;20.00;99.90;;;;;;5045960;28;20058;-82
2023/09/09 01:32:59;;;;;;;13.95;6.65;;;20.00;99.90;;;;;;5077192;28;20098;-80
2023/09/09 01:35:27;;;;;;;14.70;6.65;;;20.00;99.90;;;;;;5037469;28;20123;-82
2023/09/09 01:37:54;;;;;;;13.23;7.05;;;19.90;99.90;;;;;;5050709;28;20058;-83
2023/09/09 01:40:21;;;;;;;14.18;6.57;;;19.90;99.90;;;;;;5028229;28;20532;-83
2023/09/09 01:42:49;;;;;;;13.45;6.40;;;19.90;99.90;;;;;;5059418;28;20515;-83
2023/09/09 01:45:17;;;;;;;12.70;6.53;;;19.90;99.90;;;;;;5045643;28;20415;-84
2023/09/09 01:47:46;;;;;;;17.63;6.80;;;19.90;99.90;;;;;;5050327;28;20049;-81
2023/09/09 01:50:13;;;;;;;12.38;6.97;;;19.80;99.90;;;;;;5057176;28;20045;-82
2023/09/09 01:52:40;;;;;;;11.18;6.30;;;19.80;99.90;;;;;;5069686;28;20064;-81
2023/09/09 01:55:07;;;;;;;11.30;6.53;;;19.80;99.90;;;;;;5084190;28;20036;-81
2023/09/09 01:57:33;;;;;;;12.18;6.88;;;19.70;99.90;;;;;;5081893;28;20044;-82
2023/09/09 02:00:07;;;;;;;12.45;6.38;;;19.70;99.90;;;;;;5082650;28;20040;-83
2023/09/09 02:02:38;;;;;;;13.38;6.45;;;19.70;99.90;;;;;;5081658;28;20071;-82
2023/09/09 02:05:05;;;;;;;11.38;6.15;;;19.70;99.90;;;;;;5082366;28;20086;-83
2023/09/09 02:07:33;;;;;;;10.23;5.72;;;19.60;99.90;;;;;;5085064;28;20170;-83
2023/09/09 02:10:00;;;;;;;13.57;6.78;;;19.60;99.90;;;;;;5080898;28;20067;-81
2023/09/09 02:12:28;;;;;;;13.02;6.70;;;19.60;99.90;;;;;;5083904;28;20078;-82
2023/09/09 02:14:55;;;;;;;12.10;6.60;;;19.60;99.90;;;;;;5092195;28;20043;-81
2023/09/09 02:20:07;;;;;;;10.43;5.85;;;19.60;99.90;;;;;;5081237;28;20372;-83
2023/09/09 02:22:34;;;;;;;12.98;5.70;;;19.60;99.90;;;;;;5076929;28;20486;-81
2023/09/09 02:25:00;;;;;;;13.75;7.00;;;19.60;99.90;;;;;;5064510;28;20359;-83
2023/09/09 02:27:27;;;;;;;14.52;6.53;;;19.60;99.90;;;;;;5069116;28;20431;-82
2023/09/09 02:29:54;;;;;;;12.63;6.82;;;19.60;99.90;;;;;;5076201;28;20079;-81
2023/09/09 02:32:21;;;;;;;16.10;7.03;;;19.60;99.90;;;;;;5082956;28;20041;-81
2023/09/09 02:34:47;;;;;;;13.15;7.07;;;19.60;99.90;;;;;;5073597;28;20451;-81
2023/09/09 02:37:17;;;;;;;12.38;6.35;;;19.60;99.90;;;;;;5094706;28;20046;-82
2023/09/09 02:39:43;;;;;;;17.70;6.60;;;19.50;99.90;;;;;;5095069;28;20047;-82
2023/09/09 02:42:10;;;;;;;13.00;6.55;;;19.40;99.90;;;;;;5080851;28;20116;-82
2023/09/09 02:44:37;;;;;;;12.40;6.93;;;19.30;99.90;;;;;;5084561;28;20043;-83
2023/09/09 02:47:07;;;;;;;13.32;7.18;;;19.30;99.90;;;;;;5088312;28;20493;-83
2023/09/09 02:49:34;;;;;;;12.52;6.45;;;19.20;99.90;;;;;;5074782;28;20052;-81
2023/09/09 02:52:01;;;;;;;13.35;6.97;;;19.20;99.90;;;;;;5061781;28;20075;-82
2023/09/09 02:54:28;;;;;;;12.73;7.60;;;19.20;99.90;;;;;;5089914;28;20033;-82
2023/09/09 02:56:55;;;;;;;14.48;7.22;;;19.20;99.90;;;;;;5084288;28;20127;-83
2023/09/09 02:59:22;;;;;;;14.57;6.57;;;19.20;99.90;;;;;;5062050;28;20048;-83
2023/09/09 03:01:49;;;;;;;14.55;6.53;;;19.20;99.90;;;;;;5073605;28;20475;-82
2023/09/09 03:04:16;;;;;;;12.60;5.90;;;19.10;99.90;;;;;;5089599;28;20054;-81
2023/09/09 03:06:43;;;;;;;11.32;6.40;;;19.10;99.90;;;;;;5073556;28;20044;-84
2023/09/09 03:09:13;;;;;;;13.98;6.90;;;19.20;99.90;;;;;;5057776;28;20045;-83
2023/09/09 03:11:39;;;;;;;14.02;7.40;;;19.10;99.90;;;;;;5088852;28;20378;-82
2023/09/09 03:14:06;;;;;;;12.30;6.43;;;19.10;99.90;;;;;;5056731;28;20443;-82
2023/09/09 03:16:33;;;;;;;13.32;7.00;;;19.10;99.90;;;;;;5071401;28;20106;-83
2023/09/09 03:19:02;;;;;;;14.68;6.88;;;19.00;99.90;;;;;;5074104;28;20040;-82
2023/09/09 03:21:29;;;;;;;12.07;6.60;;;19.00;99.90;;;;;;5071141;28;20042;-83
2023/09/09 03:23:56;;;;;;;15.48;7.07;;;18.90;99.90;;;;;;5073854;28;20040;-81
2023/09/09 03:26:22;;;;;;;15.40;7.00;;;19.00;99.90;;;;;;5089185;28;20032;-83
2023/09/09 03:28:50;;;;;;;14.57;7.15;;;18.90;99.90;;;;;;5073259;28;20061;-81
2023/09/09 03:31:20;;;;;;;14.02;6.90;;;18.90;99.90;;;;;;5074037;28;20048;-82
2023/09/09 03:33:47;;;;;;;14.23;7.15;;;18.80;99.90;;;;;;5070448;28;20430;-81
2023/09/09 03:36:14;;;;;;;15.73;7.07;;;18.80;99.90;;;;;;5074851;28;20034;-81
2023/09/09 03:41:27;;;;;;;10.27;5.72;;;18.80;99.90;;;;;;5093193;28;20073;-82
2023/09/09 03:43:53;;;;;;;15.52;6.72;;;18.70;99.90;;;;;;5092176;28;20064;-82
2023/09/09 03:46:20;;;;;;;11.98;6.93;;;18.70;99.90;;;;;;5093352;28;20142;-83
2023/09/09 03:48:47;;;;;;;11.40;6.43;;;18.70;99.90;;;;;;5094189;28;20159;-82
2023/09/09 03:51:14;;;;;;;11.93;6.03;;;18.70;99.90;;;;;;5088903;28;20434;-82
2023/09/09 03:53:41;;;;;;;15.70;7.43;;;18.70;99.90;;;;;;5084036;28;20070;-83
2023/09/09 03:56:08;;;;;;;12.00;6.20;;;18.60;99.90;;;;;;5076519;28;20432;-83
2023/09/09 03:58:35;;;;;;;12.18;6.43;;;18.60;99.90;;;;;;5083341;28;20793;-82
2023/09/09 04:01:04;;;;;;;12.60;5.72;;;18.60;99.90;;;;;;5077335;28;20467;-83
2023/09/09 04:03:33;;;;;;;12.95;6.13;;;18.60;99.90;;;;;;5081421;28;20040;-84
2023/09/09 04:06:03;;;;;;;12.07;6.10;;;18.60;99.90;;;;;;5063425;28;20056;-83
2023/09/09 04:11:01;;;;;;;13.23;7.03;;;18.60;99.90;;;;;;5093895;28;20044;-83
2023/09/09 04:13:28;;;;;;;13.45;6.10;;;18.60;99.90;;;;;;5078634;28;20052;-83
2023/09/09 04:15:55;;;;;;;12.18;6.40;;;18.60;99.90;;;;;;5093695;28;20459;-81
2023/09/09 04:18:22;;;;;;;13.10;5.93;;;18.50;99.90;;;;;;5093577;28;20044;-83
2023/09/09 04:21:09;;;;;;;11.93;6.05;;;18.50;99.90;;;;;;5093120;28;20048;-82
2023/09/09 04:23:36;;;;;;;11.82;6.75;;;18.50;99.90;;;;;;5079122;28;20040;-83
2023/09/09 04:26:03;;;;;;;12.20;6.38;;;18.40;99.90;;;;;;5093657;28;20374;-83
2023/09/09 04:28:31;;;;;;;12.25;5.82;;;18.40;99.90;;;;;;5092906;28;20054;-81
2023/09/09 04:30:58;;;;;;;10.32;5.97;;;18.40;99.90;;;;;;5076801;28;20059;-83
2023/09/09 04:33:25;;;;;;;12.77;5.85;;;18.40;99.90;;;;;;5092505;28;20436;-83
2023/09/09 04:35:52;;;;;;;10.18;5.22;;;18.40;99.90;;;;;;5093570;28;20040;-83
2023/09/09 04:38:21;;;;;;;10.70;5.65;;;18.40;99.90;;;;;;5062370;28;20047;-82
2023/09/09 04:40:48;;;;;;;11.43;5.60;;;18.40;99.90;;;;;;5075888;28;20113;-84
2023/09/09 04:43:14;;;;;;;10.32;5.68;;;18.40;99.90;;;;;;5086406;28;20090;-82
2023/09/09 04:45:41;;;;;;;12.05;5.68;;;18.40;99.90;;;;;;5074007;28;20468;-81
2023/09/09 04:48:10;;;;;;;9.10;4.93;;;18.40;99.90;;;;;;5084887;28;20073;-83
2023/09/09 04:50:37;;;;;;;11.00;5.63;;;18.40;99.90;;;;;;5076705;28;20101;-81
2023/09/09 04:53:05;;;;;;;11.43;5.95;;;18.30;99.90;;;;;;5087396;28;20090;-81
2023/09/09 04:55:32;;;;;;;11.50;5.32;;;18.20;99.90;;;;;;5093753;28;20036;-82
2023/09/09 05:00:46;;;;;;;11.25;5.47;;;18.20;99.90;;;;;;5093164;28;20056;-81
2023/09/09 05:03:13;;;;;;;9.75;5.35;;;18.20;99.90;;;;;;5096233;28;20101;-81
2023/09/09 05:05:40;;;;;;;12.30;6.10;;;18.20;99.90;;;;;;5097052;28;20101;-83
2023/09/09 05:08:06;;;;;;;13.15;5.78;;;18.20;99.90;;;;;;5096079;28;20071;-82
2023/09/09 05:10:34;;;;;;;10.02;5.60;;;18.20;99.90;;;;;;5087139;28;20063;-83
2023/09/09 05:13:03;;;;;;;12.32;5.72;;;18.20;99.90;;;;;;5076807;28;20471;-81
2023/09/09 05:15:30;;;;;;;10.02;5.53;;;18.10;99.90;;;;;;5059199;28;20044;-81
2023/09/09 05:17:57;;;;;;;10.63;5.50;;;18.10;99.90;;;;;;5073910;28;20130;-81
2023/09/09 05:20:24;;;;;;;11.13;5.07;;;18.10;99.90;;;;;;5066194;28;20098;-83
2023/09/09 05:22:52;;;;;;;10.80;5.10;;;18.10;99.90;;;;;;5066669;28;20414;-82
2023/09/09 05:25:19;;;;;;;11.25;5.72;;;18.10;99.90;;;;;;5096145;28;20058;-83
2023/09/09 05:30:31;;;;;;;16.08;5.75;;;18.10;99.90;;;;;;5090937;28;20091;-82
2023/09/09 05:32:58;;;;;;;13.32;6.32;;;18.10;99.90;;;;;;5076414;28;20117;-81
2023/09/09 05:35:25;;;;;;;10.15;5.47;;;18.00;99.90;;;;;;5075328;28;20432;-82
2023/09/09 05:37:52;;;;;;;10.70;5.70;;;18.00;99.90;;;;;;5086911;28;20033;-83
2023/09/09 05:40:19;;;;;;;12.60;6.10;;;18.10;99.90;;;;;;5082406;28;20508;-81
2023/09/09 05:42:46;;;;;;;10.07;5.35;;;18.10;99.90;;;;;;5096238;28;20497;-82
2023/09/09 05:45:14;;;;;;;11.30;5.68;;;18.10;99.90;;;;;;5064300;28;20098;-81
2023/09/09 05:47:44;;;;;;;10.88;5.50;;;18.10;99.90;;;;;;5076066;28;20140;-82
2023/09/09 05:50:12;;;;;;;10.48;5.43;;;18.10;99.90;;;;;;5075970;28;20056;-83
2023/09/09 05:52:39;;;;;;;13.00;5.45;;;18.10;99.90;;;;;;5078437;28;20505;-81
2023/09/09 05:55:08;;;;;;;12.05;5.75;;;18.10;99.90;;;;;;5086993;28;20105;-83
2023/09/09 05:57:38;;;;;;;10.57;5.85;;;18.10;99.90;;;;;;5073501;28;20042;-82
2023/09/09 06:00:04;;;;;;;12.65;6.00;;;18.20;99.90;;;;;;5075026;28;20049;-82
2023/09/09 06:02:38;;;;;;;12.70;6.22;;;18.10;99.90;;;;;;5077163;28;20076;-82
2023/09/09 06:05:06;;;;;;;11.80;5.78;;;18.20;99.90;;;;;;5079350;28;20349;-84
2023/09/09 06:07:36;;;;;;;16.63;6.15;;;18.20;99.90;;;;;;5079554;28;20063;-81
2023/09/09 06:10:07;;;;;;;11.32;6.10;;;18.30;99.90;;;;;;5078192;28;20055;-81
2023/09/09 06:12:34;;;;;;;11.60;5.80;;;18.30;99.90;;;;;;5085862;28;20036;-81
2023/09/09 06:15:01;;;;;;;11.43;5.68;;;18.40;99.90;;;;;;5061988;28;20056;-80
2023/09/09 06:17:29;;;;;;;11.82;5.93;;;18.40;99.90;;;;;;5087331;28;20559;-81
2023/09/09 06:19:56;;;;;;;13.52;6.63;;;18.50;99.90;;;;;;5095650;28;20117;-80
2023/09/09 06:22:22;;;;;;;13.50;6.60;;;18.60;99.90;;;;;;5094902;28;20040;-81
2023/09/09 06:24:49;;;;;;;11.30;5.75;;;18.60;99.90;;;;;;5089344;28;20047;-83
2023/09/09 06:27:17;;;;;;;12.48;6.65;;;18.70;99.90;;;;;;5095115;28;20110;-80
2023/09/09 06:29:43;;;;;;;12.38;6.40;;;18.80;99.90;;;;;;5088205;28;20044;-82
2023/09/09 06:32:10;;;;;;;10.50;5.65;;;18.90;99.90;;;;;;5075281;28;20041;-82
2023/09/09 06:34:38;;;;;;;14.20;6.22;;;18.90;99.90;;;;;;5086458;28;20055;-82
2023/09/09 06:37:06;;;;;;;12.65;5.97;;;19.00;99.90;;;;;;5088508;28;20056;-82
2023/09/09 06:39:33;;;;;;;13.38;5.75;;;19.10;99.90;;;;;;5085871;28;20040;-81
2023/09/09 06:41:59;;;;;;;15.85;6.63;;;19.30;99.90;;;;;;5092986;28;20454;-81
2023/09/09 06:44:31;;;;;;;15.20;6.32;;;19.40;99.90;;;;;;5075353;28;20127;-81
2023/09/09 06:46:58;;;;;;;11.25;6.05;;;19.50;99.90;;;;;;5075026;28;20159;-80
2023/09/09 06:49:24;;;;;;;11.40;6.25;;;19.60;99.90;;;;;;5075874;28;20041;-80
2023/09/09 06:51:53;;;;;;;10.70;6.00;;;19.70;99.90;;;;;;5078853;28;20083;-82
2023/09/09 06:54:19;;;;;;;12.27;6.03;;;19.80;99.90;;;;;;5074660;28;20044;-80
2023/09/09 06:56:47;;;;;;;10.90;5.57;;;19.90;99.90;;;;;;5074693;28;20044;-81
2023/09/09 06:59:13;;;;;;;10.63;6.22;;;20.10;99.90;;;;;;5073251;28;20036;-83
2023/09/09 07:01:40;;;;;;;13.90;5.45;;;20.20;99.90;;;;;;5088506;28;20138;-82
2023/09/09 07:04:08;;;;;;;11.90;6.25;;;20.40;99.90;;;;;;5077717;28;20052;-83
2023/09/09 07:06:35;;;;;;;11.73;5.75;;;20.50;99.90;;;;;;5075506;28;20060;-83
2023/09/09 07:11:48;;;;;;;10.57;6.20;;;20.60;99.90;;;;;;5074095;28;20056;-81
2023/09/09 07:14:15;;;;;;;11.02;5.40;;;20.70;99.90;;;;;;5082300;28;20071;-83
2023/09/09 07:16:42;;;;;;;12.43;5.63;;;20.80;99.90;;;;;;5093053;28;20157;-84
2023/09/09 07:19:10;;;;;;;15.15;6.15;;;20.90;99.90;;;;;;5095429;28;20051;-86
2023/09/09 07:21:36;;;;;;;11.63;5.97;;;21.00;99.90;;;;;;5076002;28;20445;-84
2023/09/09 07:24:03;;;;;;;16.27;5.60;;;21.10;99.90;;;;;;5074175;28;20040;-83
2023/09/09 07:26:30;;;;;;;14.88;5.80;;;21.30;99.90;;;;;;5074633;28;20131;-85
2023/09/09 07:28:59;;;;;;;10.13;5.97;;;21.50;99.90;;;;;;5069444;28;20044;-84
2023/09/09 07:31:27;;;;;;;11.32;5.82;;;21.80;99.90;;;;;;5073894;28;20471;-85
2023/09/09 07:33:54;;;;;;;13.27;5.43;;;22.00;99.90;;;;;;5073839;28;20451;-85
2023/09/09 07:36:21;;;;;;;10.93;5.65;;;22.10;99.90;;;;;;5073993;28;20124;-85
2023/09/09 07:38:51;;;;;;;12.35;5.82;;;22.20;99.90;;;;;;5078111;28;20047;-84
2023/09/09 07:41:18;;;;;;;13.48;5.55;;;22.40;99.90;;;;;;5081712;28;20548;-84
2023/09/09 07:43:44;;;;;;;10.15;5.07;;;22.60;99.90;;;;;;5074582;28;20032;-83
2023/09/09 07:46:11;;;;;;;12.50;5.32;;;22.80;99.90;;;;;;5057668;28;20044;-83
2023/09/09 07:48:38;;;;;;;10.85;5.10;;;23.00;99.90;;;;;;5087787;28;20451;-83
2023/09/09 07:51:05;;;;;;;12.25;5.53;;;23.20;99.90;;;;;;5077056;28;20121;-82
2023/09/09 07:53:31;;;;;;;12.93;4.50;;;23.40;99.90;;;;;;5083935;28;20072;-82
2023/09/09 07:55:58;;;;;;;12.65;4.00;;;23.60;99.90;;;;;;5041563;28;20149;-84
2023/09/09 07:58:27;;;;;;;10.68;5.38;;;23.70;99.90;;;;;;5020691;28;20049;-82
2023/09/09 08:00:54;;;;;;;18.88;5.80;;;23.90;99.90;;;;;;5067961;28;20032;-83
2023/09/09 08:03:21;;;;;;;8.38;4.40;;;24.10;99.90;;;;;;5054442;28;20448;-82
2023/09/09 08:05:48;;;;;;;12.10;4.60;;;24.20;99.90;;;;;;5050046;28;20414;-84
2023/09/09 08:08:18;;;;;;;9.32;5.03;;;24.40;99.90;;;;;;5048019;28;20042;-83
2023/09/09 08:10:45;;;;;;;11.20;5.03;;;24.60;99.90;;;;;;5071962;28;20041;-85
2023/09/09 08:13:12;;;;;;;15.60;4.85;;;24.80;99.90;;;;;;5036698;28;20095;-85
2023/09/09 08:15:38;;;;;;;8.40;5.00;;;24.90;99.90;;;;;;5073137;28;20094;-85
2023/09/09 08:18:07;;;;;;;13.25;4.90;;;25.00;99.90;;;;;;5044263;28;20067;-84
2023/09/09 08:20:34;;;;;;;11.27;5.45;;;25.20;99.90;;;;;;5068276;28;20444;-85
2023/09/09 08:23:01;;;;;;;9.38;5.35;;;25.30;99.90;;;;;;5068564;28;20062;-85
2023/09/09 08:25:32;;;;;;;10.02;4.90;;;25.50;99.90;;;;;;5074696;28;20037;-84
2023/09/09 08:28:01;;;;;;;12.10;5.30;;;25.60;99.90;;;;;;5073987;28;20051;-83
2023/09/09 08:30:28;;;;;;;10.07;4.68;;;25.60;99.90;;;;;;5037168;28;20349;-85
2023/09/09 08:32:54;;;;;;;7.50;4.80;;;25.60;99.90;;;;;;5080989;28;20478;-84
2023/09/09 08:35:22;;;;;;;10.50;4.75;;;25.70;99.90;;;;;;5061261;28;20119;-83
2023/09/09 08:37:50;;;;;;;15.50;5.40;;;26.10;99.90;;;;;;5058334;28;20076;-86
2023/09/09 08:40:17;;;;;;;11.73;5.05;;;26.20;99.90;;;;;;5068139;28;20050;-83
2023/09/09 08:42:43;;;;;;;9.57;4.68;;;26.40;99.90;;;;;;5040534;28;20128;-83
2023/09/09 08:45:11;;;;;;;11.25;4.57;;;26.50;99.90;;;;;;5058070;28;20464;-85
2023/09/09 08:47:38;;;;;;;8.75;4.80;;;26.60;99.90;;;;;;5057616;28;20040;-83
2023/09/09 08:50:05;;;;;;;11.00;4.75;;;26.80;99.90;;;;;;5067490;28;20040;-86
2023/09/09 08:52:32;;;;;;;11.48;4.80;;;26.90;99.90;;;;;;5071618;28;20058;-85
2023/09/09 08:54:59;;;;;;;11.23;4.90;;;27.10;99.90;;;;;;5080551;28;20052;-84
2023/09/09 08:57:28;;;;;;;9.45;5.53;;;27.20;99.90;;;;;;5091057;28;20093;-82
2023/09/09 08:59:55;;;;;;;9.60;5.18;;;27.30;99.90;;;;;;5083254;28;20050;-85
2023/09/09 09:02:21;;;;;;;9.13;5.20;;;27.40;99.90;;;;;;5084973;28;20097;-85
2023/09/09 09:04:48;;;;;;;8.25;4.85;;;27.40;99.90;;;;;;5092049;28;20463;-84
2023/09/09 09:07:17;;;;;;;8.70;4.95;;;27.60;99.90;;;;;;5076071;28;20084;-84
2023/09/09 09:09:44;;;;;;;13.73;5.10;;;27.70;99.90;;;;;;5091111;28;20181;-84
2023/09/09 09:12:10;;;;;;;10.20;4.88;;;27.80;99.90;;;;;;5085856;28;20071;-82
2023/09/09 09:14:37;;;;;;;9.30;4.82;;;27.90;99.90;;;;;;5097058;28;20043;-83
2023/09/09 09:17:06;;;;;;;8.82;5.03;;;28.00;99.90;;;;;;5072585;28;20045;-86
2023/09/09 09:19:32;;;;;;;11.32;4.68;;;28.10;99.90;;;;;;5070414;28;20068;-83
2023/09/09 09:22:00;;;;;;;12.13;5.30;;;28.20;99.90;;;;;;5078364;28;20060;-84
2023/09/09 09:24:27;;;;;;;10.70;5.25;;;28.30;99.90;;;;;;5077453;28;20427;-83
2023/09/09 09:26:54;;;;;;;10.18;5.15;;;28.40;99.90;;;;;;5090861;28;20054;-85
2023/09/09 09:29:21;;;;;;;10.15;4.88;;;28.40;99.90;;;;;;5076444;28;20120;-82
2023/09/09 09:31:48;;;;;;;8.60;4.70;;;28.40;99.90;;;;;;5094201;28;20071;-84
2023/09/09 09:34:16;;;;;;;9.80;4.80;;;28.60;99.90;;;;;;5086664;28;20138;-83
2023/09/09 09:36:42;;;;;;;10.23;4.93;;;28.80;99.90;;;;;;5091684;28;20123;-83
2023/09/09 09:39:10;;;;;;;14.32;4.90;;;29.00;99.90;;;;;;5072313;28;20412;-86
2023/09/09 09:41:37;;;;;;;11.25;5.00;;;29.10;99.90;;;;;;5089354;28;20101;-85
2023/09/09 09:44:04;;;;;;;11.00;4.75;;;29.20;99.90;;;;;;5095244;28;20382;-84
2023/09/09 09:46:30;;;;;;;10.20;5.30;;;29.30;99.90;;;;;;5097207;28;20040;-85
2023/09/09 09:49:01;;;;;;;;;;;29.50;99.90;;;;;;5065525;28;20052;-83
2023/09/09 09:51:28;;;;;;;11.63;4.80;;;29.60;99.90;;;;;;5090357;28;19920;-83
2023/09/09 09:53:55;;;;;;;9.40;4.72;;;29.50;99.90;;;;;;5083476;28;20123;-85
2023/09/09 09:56:21;;;;;;;9.13;5.07;;;29.50;99.90;;;;;;5090224;28;20115;-84
2023/09/09 09:58:50;;;;;;;9.13;4.75;;;29.70;99.90;;;;;;5087841;28;20470;-80
2023/09/09 10:01:16;;;;;;;10.50;5.57;;;29.80;99.90;;;;;;5095829;28;20036;-84
2023/09/09 10:03:43;;;;;;;10.10;5.18;;;30.00;99.90;;;;;;5095906;28;20071;-84
2023/09/09 10:06:10;;;;;;;11.00;5.28;;;30.00;99.90;;;;;;5081640;28;20045;-83
2023/09/09 10:08:39;;;;;;;10.00;4.60;;;29.90;99.90;;;;;;5088074;28;20098;-84
2023/09/09 10:11:05;;;;;;;10.43;4.93;;;30.00;99.90;;;;;;5075696;28;20477;-84
2023/09/09 10:13:32;;;;;;;12.10;4.88;;;30.20;99.90;;;;;;5094398;28;20088;-82
2023/09/09 10:15:59;;;;;;;13.35;4.85;;;30.50;99.90;;;;;;5081148;28;20059;-81
2023/09/09 10:18:26;;;;;;;10.20;4.55;;;30.70;99.90;;;;;;5075461;28;20143;-82
2023/09/09 10:20:52;;;;;;;9.57;5.00;;;30.90;99.90;;;;;;5086585;28;20075;-80
2023/09/09 10:23:19;;;;;;;8.75;4.63;;;31.10;99.90;;;;;;5096256;28;20058;-80
2023/09/09 10:25:46;;;;;;;11.05;4.80;;;31.30;99.90;;;;;;5096805;28;20123;-80
2023/09/09 10:28:13;;;;;;;11.63;4.50;;;31.40;99.90;;;;;;5080435;28;20432;-79
2023/09/09 10:30:39;;;;;;;10.40;4.82;;;31.60;99.90;;;;;;5083284;28;20123;-81
2023/09/09 10:33:09;;;;;;;13.10;5.43;;;31.80;99.90;;;;;;5096507;28;20043;-81
2023/09/09 10:35:36;;;;;;;12.38;4.90;;;31.90;99.90;;;;;;5095642;28;20036;-80
2023/09/09 10:38:04;;;;;;;10.85;5.07;;;32.00;99.90;;;;;;5095710;28;20067;-82
2023/09/09 10:40:30;;;;;;;11.27;4.55;;;32.30;99.90;;;;;;5095360;28;20217;-81
2023/09/09 10:42:57;;;;;;;10.93;4.53;;;32.60;99.90;;;;;;5096035;28;20040;-80
2023/09/09 10:45:24;;;;;;;14.27;4.68;;;33.10;99.90;;;;;;5081744;28;20036;-81
2023/09/09 10:47:51;;;;;;;11.75;4.50;;;33.40;99.90;;;;;;5095590;28;20048;-80
2023/09/09 10:50:17;;;;;;;13.48;4.80;;;33.50;99.90;;;;;;5095588;28;20413;-81
2023/09/09 10:52:44;;;;;;;12.25;4.72;;;33.70;99.90;;;;;;5094778;28;20052;-81
2023/09/09 10:55:11;;;;;;;10.50;4.20;;;34.20;99.90;;;;;;5094896;28;20040;-80
2023/09/09 10:57:38;;;;;;;11.30;4.60;;;34.50;99.90;;;;;;5081290;28;20064;-80
2023/09/09 11:00:11;;;;;;;14.77;4.60;;;34.50;99.90;;;;;;5094916;28;20054;-82
2023/09/09 11:02:37;;;;;;;11.70;4.35;;;34.70;99.90;;;;;;5095545;28;20070;-80
2023/09/09 11:05:04;;;;;;;11.93;4.68;;;35.10;99.90;;;;;;5094917;28;20367;-82
2023/09/09 11:10:16;;;;;;;16.02;3.95;;;35.70;99.90;;;;;;5088339;28;20422;-83
2023/09/09 11:12:43;;;;;;;12.57;4.40;;;35.80;99.90;;;;;;5075345;28;20063;-83
2023/09/09 11:15:10;;;;;;;9.25;4.25;;;35.50;99.90;;;;;;5085844;28;20387;-81
2023/09/09 11:17:37;;;;;;;11.00;4.78;;;35.30;99.90;;;;;;5088519;28;20142;-84
2023/09/09 11:20:06;;;;;;;10.80;4.63;;;35.50;99.90;;;;;;5082645;28;20046;-87
2023/09/09 11:22:33;;;;;;;11.82;4.22;;;35.90;99.90;;;;;;5074898;28;20052;-83
2023/09/09 11:25:00;;;;;;;10.00;4.35;;;36.10;99.90;;;;;;5071176;28;20375;-83
2023/09/09 11:27:26;;;;;;;19.98;5.05;;;36.30;99.90;;;;;;5073696;28;20048;-83
2023/09/09 11:29:53;;;;;;;9.38;4.72;;;36.20;99.90;;;;;;5088993;28;20135;-83
2023/09/09 11:32:20;;;;;;;8.50;4.15;;;36.30;99.90;;;;;;5094201;28;20131;-82
2023/09/09 11:34:47;;;;;;;10.80;4.50;;;36.40;99.90;;;;;;5093157;28;20127;-84
2023/09/09 11:39:44;;;;;;;11.52;3.92;;;36.30;99.90;;;;;;5082813;28;20063;-85
2023/09/09 11:42:11;;;;;;;9.75;4.20;;;36.50;99.90;;;;;;5081790;28;20406;-84
2023/09/09 11:44:38;;;;;;;10.65;3.75;;;36.80;99.90;;;;;;5085715;28;20036;-82
2023/09/09 11:47:04;;;;;;;9.35;4.30;;;36.90;99.90;;;;;;5079006;28;20444;-84
2023/09/09 11:49:31;;;;;;;11.75;4.15;;;37.20;99.90;;;;;;5094358;28;20154;-83
2023/09/09 11:51:57;;;;;;;12.40;4.32;;;37.10;99.90;;;;;;5084834;28;20048;-84
2023/09/09 11:54:24;;;;;;;11.10;4.28;;;37.00;99.60;;;;;;5070567;28;20117;-86
2023/09/09 11:56:51;;;;;;;10.57;4.30;;;37.10;99.90;;;;;;5063181;28;20075;-85
2023/09/09 11:59:18;;;;;;;9.82;4.15;;;37.50;99.30;;;;;;5059383;28;20048;-82
2023/09/09 12:01:45;;;;;;;10.98;3.95;;;37.80;98.80;;;;;;5069033;28;20467;-82
2023/09/09 12:04:12;;;;;;;12.27;4.10;;;37.90;98.40;;;;;;5074338;28;20098;-84
2023/09/09 12:06:42;;;;;;;12.35;4.38;;;38.20;97.80;;;;;;5043290;28;20037;-82
2023/09/09 12:09:09;;;;;;;12.48;4.45;;;38.30;97.30;;;;;;5064081;28;20131;-81
2023/09/09 12:11:36;;;;;;;11.10;4.20;;;38.10;97.30;;;;;;5068618;28;20040;-81
2023/09/09 12:14:03;;;;;;;11.75;4.15;;;38.00;96.60;;;;;;5063413;28;20051;-81
2023/09/09 12:16:30;;;;;;;13.90;4.20;;;37.90;97.90;;;;;;5054262;28;20116;-83
2023/09/09 12:18:58;;;;;;;9.95;4.22;;;37.70;96.50;;;;;;5054494;28;20337;-84
2023/09/09 12:21:24;;;;;;;12.82;4.03;;;37.70;96.00;;;;;;5050187;28;20094;-82
2023/09/09 12:23:51;;;;;;;13.93;4.22;;;37.80;96.50;;;;;;5054430;28;20455;-81
2023/09/09 12:26:18;;;;;;;12.75;4.40;;;37.70;97.10;;;;;;5020623;28;20052;-81
2023/09/09 12:28:45;;;;;;;9.30;4.00;;;38.00;96.20;;;;;;5067580;28;20452;-82
2023/09/09 12:31:12;;;;;;;12.25;4.47;;;38.30;96.00;;;;;;5066434;28;20055;-81
2023/09/09 12:33:39;;;;;;;12.23;4.30;;;38.10;95.00;;;;;;5055819;28;20050;-81
2023/09/09 12:36:06;;;;;;;14.82;4.25;;;38.20;95.30;;;;;;5074718;28;20048;-81
2023/09/09 12:38:33;;;;;;;13.80;4.03;;;38.00;95.10;;;;;;5074445;28;20048;-84
2023/09/09 12:41:00;;;;;;;14.98;3.75;;;38.20;94.60;;;;;;5073430;28;20045;-81
2023/09/09 12:43:27;;;;;;;8.35;3.92;;;38.00;94.40;;;;;;5074154;28;20037;-81
2023/09/09 12:45:54;;;;;;;12.80;3.70;;;37.70;94.10;;;;;;5050524;28;20041;-82
2023/09/09 12:48:23;;;;;;;9.98;3.83;;;37.70;94.40;;;;;;5035944;28;20128;-81
2023/09/09 12:50:49;;;;;;;13.13;3.90;;;38.00;93.90;;;;;;5059439;28;20045;-83
2023/09/09 12:53:17;;;;;;;13.93;3.90;;;38.10;94.70;;;;;;5074339;28;20277;-81
2023/09/09 12:55:44;;;;;;;10.32;4.13;;;38.40;93.60;;;;;;5038166;28;20106;-81
2023/09/09 12:58:10;;;;;;;10.77;3.72;;;38.40;93.70;;;;;;5072897;28;20041;-83
2023/09/09 13:00:37;;;;;;;14.60;4.47;;;38.30;93.40;;;;;;5048889;28;20040;-81
2023/09/09 13:03:04;;;;;;;11.48;4.07;;;38.20;93.40;;;;;;5057311;28;20032;-82
2023/09/09 13:05:33;;;;;;;12.48;4.10;;;38.40;94.30;;;;;;5064025;28;20110;-83